オウル の空港の天気 - METARとTAF

オウル空港 ( EFOU / OUL ) - フィンランド Oulunsalo
飛行場実況気象(Metar)
観測時間06/25 15:50 EEST (06/25 12:50 UTC)
風向・風速北 5m/s
視程10km以上
天気現象
なし
気温20℃
湿度53%
気圧1012hPa
METAREFOU 251250Z AUTO 35010KT CAVOK 20/10 Q1012
過去の天気等 Google飛行場航空写真 Wunderground天気予報

過去48時間のMETAR

飛行場予報(TAF)
発表時間: 6/25 14:29 EEST (6/25 11:29 UTC)
予報対象時間: 25日15時 EEST ~ 26日15時 EEST
風向・風速北北西 3m/s
視程10km以上
なし
26日7時 EEST ~ 26日9時 EEST に徐々に
風向・風速西 5m/s
TAF EFOU 251129Z 2512/2612 34006KT CAVOK
BECMG 2604/2606 28010KT